Hickory Isle, Michigan
Current Conditions -  °F | °C
As of 7:14 AM on Sunday 23 Nov 2014 (Local Time) from KONZ Reporting Station
Haze Haze  
Wind Chill: 39°   Ceiling: 2800
Heat Index: 39°   Visibility: 2.5mi
Dew Point: 37°   Wind: 3mph
Humidity: 93%   Direction: 170°S
Pressure: 29.94"   Gusts: NA
Location:  42.1357°N, 83.1574°W
Report Text: KONZ 231214Z AUTO 17003KT 2 1/2SM BR BKN028 OVC070 04/03 A2994 RMK AO2
Loading
Personal Weather Stations






























Interactive Weather Map New forecast layout! Learn more

10-Day Weather Forecast

Advertisements
Track Severe Weather on mobile